Terminal Aerodrome Forecast
Issued by NWS

Home | Current Version | Previous Version | Text Only | Print | Product List | Glossary On
Versions: 1 2 3 4 5 6 7 8 9 10 11 12 13 14 15 16 17 18 19 20 21 22 23
000
FTUS41 KBOX 201120
TAFBED
TAF
KBED 201120Z 2012/2112 00000KT P6SM SKC
     FM201400 20007KT P6SM SCT035
     FM202000 20010G18KT P6SM FEW250
     FM210000 20009KT P6SM SCT250
     FM210500 20005KT P6SM BKN080=

USA.gov is the U.S. government's official web portal to all federal, state and local government web resources and services.